Time;durP1;ratioP1;P1;durP2;ratioP2;P2;SDS_P1;SDS_P2;PMS_P1;PMS_P2;Temp;Humidity;BMP_temperature;BMP_pressure;BME280_temperature;BME280_humidity;BME280_pressure;Samples;Min_cycle;Max_cycle;Signal;HPM_P1;HPM_P2
2024/03/17 00:00:18;;;;;;;7.03;2.40;;;;;;;;;;5135940;27;20452;-63
2024/03/17 00:02:44;;;;;;;14.87;3.00;;;;;;;;;;5135814;27;20451;-63
2024/03/17 00:05:12;;;;;;;6.83;2.20;;;;;;;;;;5136421;27;20460;-63
2024/03/17 00:07:38;;;;;;;6.00;2.27;;;;;;;;;;5136305;27;20527;-62
2024/03/17 00:10:07;;;;;;;8.80;2.50;;;;;;;;;;5136278;27;20986;-63
2024/03/17 00:12:33;;;;;;;9.87;2.50;;;;;;;;;;5136356;27;20441;-62
2024/03/17 00:15:00;;;;;;;7.70;2.17;;;;;;;;;;5136169;27;20569;-63
2024/03/17 00:17:26;;;;;;;9.73;2.47;;;;;;;;;;5136320;27;20535;-63
2024/03/17 00:19:53;;;;;;;11.13;2.50;;;;;;;;;;5136182;27;20536;-63
2024/03/17 00:22:20;;;;;;;6.60;2.23;;;;;;;;;;5135979;27;20953;-63
2024/03/17 00:24:47;;;;;;;7.23;2.10;;;;;;;;;;5136042;27;20928;-63
2024/03/17 00:27:13;;;;;;;7.17;2.53;;;;;;;;;;5136093;27;20535;-63
2024/03/17 00:29:40;;;;;;;8.93;2.50;;;;;;;;;;5135961;27;20460;-63
2024/03/17 00:32:06;;;;;;;7.60;3.37;;;;;;;;;;5135942;27;20445;-63
2024/03/17 00:34:33;;;;;;;7.93;2.83;;;;;;;;;;5135754;27;20484;-63
2024/03/17 00:37:00;;;;;;;5.93;1.50;;;;;;;;;;5135767;27;20436;-64
2024/03/17 00:39:28;;;;;;;9.03;2.27;;;;;;;;;;5135854;27;20453;-64
2024/03/17 00:41:54;;;;;;;10.50;2.30;;;;;;;;;;5135772;27;20529;-63
2024/03/17 00:44:21;;;;;;;6.93;2.40;;;;;;;;;;5135716;27;20452;-64
2024/03/17 00:46:48;;;;;;;8.60;2.37;;;;;;;;;;5135509;27;20983;-64
2024/03/17 00:49:15;;;;;;;8.73;2.40;;;;;;;;;;5135514;27;20472;-64
2024/03/17 00:51:42;;;;;;;13.27;2.40;;;;;;;;;;5135737;27;20485;-64
2024/03/17 00:54:10;;;;;;;6.07;1.77;;;;;;;;;;5135423;27;20478;-64
2024/03/17 00:56:37;;;;;;;12.00;1.93;;;;;;;;;;5135493;27;20448;-63
2024/03/17 00:59:04;;;;;;;8.00;1.70;;;;;;;;;;5135442;27;20460;-64
2024/03/17 01:01:30;;;;;;;11.00;2.00;;;;;;;;;;5135405;27;20441;-63
2024/03/17 01:03:57;;;;;;;6.93;2.47;;;;;;;;;;5135155;27;20464;-64
2024/03/17 01:06:23;;;;;;;9.57;2.30;;;;;;;;;;5135342;27;20471;-63
2024/03/17 01:08:51;;;;;;;9.93;2.27;;;;;;;;;;5135276;27;20896;-64
2024/03/17 01:11:18;;;;;;;3.90;2.10;;;;;;;;;;5135112;27;20441;-63
2024/03/17 01:13:47;;;;;;;7.50;1.40;;;;;;;;;;5134572;27;20566;-63
2024/03/17 01:16:13;;;;;;;6.03;2.23;;;;;;;;;;5134927;27;20974;-64
2024/03/17 01:18:40;;;;;;;13.20;3.03;;;;;;;;;;5134860;27;20804;-64
2024/03/17 01:21:06;;;;;;;9.80;3.03;;;;;;;;;;5135077;27;20445;-64
2024/03/17 01:23:33;;;;;;;9.57;2.03;;;;;;;;;;5135028;27;21016;-64
2024/03/17 01:25:59;;;;;;;7.00;2.00;;;;;;;;;;5134835;27;20427;-63
2024/03/17 01:28:27;;;;;;;11.67;2.57;;;;;;;;;;5134779;27;21081;-64
2024/03/17 01:30:54;;;;;;;9.07;2.57;;;;;;;;;;5134635;27;20423;-63
2024/03/17 01:33:21;;;;;;;8.70;2.20;;;;;;;;;;5134872;27;20459;-63
2024/03/17 01:35:47;;;;;;;11.90;2.17;;;;;;;;;;5134752;27;20611;-63
2024/03/17 01:38:14;;;;;;;11.20;2.50;;;;;;;;;;5134698;27;20496;-64
2024/03/17 01:40:40;;;;;;;10.27;2.30;;;;;;;;;;5134590;27;20447;-63
2024/03/17 01:43:11;;;;;;;8.43;1.80;;;;;;;;;;5134429;27;20887;-63
2024/03/17 01:45:37;;;;;;;12.53;2.80;;;;;;;;;;5134189;27;20473;-64
2024/03/17 01:48:10;;;;;;;7.37;1.93;;;;;;;;;;5134640;27;20464;-64
2024/03/17 01:50:37;;;;;;;11.27;2.50;;;;;;;;;;5134576;27;20846;-64
2024/03/17 01:53:05;;;;;;;8.00;2.57;;;;;;;;;;5133357;27;20773;-63
2024/03/17 01:55:31;;;;;;;9.10;1.70;;;;;;;;;;5134316;27;20538;-64
2024/03/17 01:57:58;;;;;;;9.83;1.87;;;;;;;;;;5134130;27;20457;-63
2024/03/17 02:00:26;;;;;;;11.57;2.50;;;;;;;;;;5134208;27;20452;-63
2024/03/17 02:02:53;;;;;;;8.30;2.07;;;;;;;;;;5134182;27;20457;-64
2024/03/17 02:05:20;;;;;;;7.70;2.20;;;;;;;;;;5134311;27;20536;-64
2024/03/17 02:07:48;;;;;;;11.07;3.53;;;;;;;;;;5134182;27;20484;-64
2024/03/17 02:10:14;;;;;;;6.90;1.63;;;;;;;;;;5134112;27;20850;-64
2024/03/17 02:12:41;;;;;;;15.60;2.17;;;;;;;;;;5134046;27;20812;-64
2024/03/17 02:15:08;;;;;;;11.93;2.00;;;;;;;;;;5134107;27;20484;-64
2024/03/17 02:17:35;;;;;;;8.20;2.93;;;;;;;;;;5134136;27;20467;-64
2024/03/17 02:20:02;;;;;;;15.87;3.17;;;;;;;;;;5134085;27;20443;-63
2024/03/17 02:22:31;;;;;;;10.47;2.97;;;;;;;;;;5133896;27;20539;-63
2024/03/17 02:24:57;;;;;;;17.13;2.67;;;;;;;;;;5133104;27;20443;-63
2024/03/17 02:27:24;;;;;;;11.00;2.43;;;;;;;;;;5133831;28;20445;-63
2024/03/17 02:29:50;;;;;;;10.43;2.60;;;;;;;;;;5133995;28;20536;-63
2024/03/17 02:32:17;;;;;;;4.83;1.90;;;;;;;;;;5133958;28;20452;-63
2024/03/17 02:34:44;;;;;;;6.80;2.40;;;;;;;;;;5133843;28;20525;-63
2024/03/17 02:37:11;;;;;;;7.03;2.10;;;;;;;;;;5133847;28;20427;-64
2024/03/17 02:39:39;;;;;;;8.97;2.67;;;;;;;;;;5133716;28;20792;-64
2024/03/17 02:42:06;;;;;;;8.30;1.90;;;;;;;;;;5134083;28;20835;-64
2024/03/17 02:44:34;;;;;;;10.93;2.20;;;;;;;;;;5134016;28;20487;-64
2024/03/17 02:47:01;;;;;;;13.33;2.80;;;;;;;;;;5133548;28;21001;-64
2024/03/17 02:49:35;;;;;;;8.53;2.27;;;;;;;;;;5133680;28;20939;-64
2024/03/17 02:52:02;;;;;;;8.27;2.63;;;;;;;;;;5133680;28;20445;-64
2024/03/17 02:54:29;;;;;;;8.80;1.90;;;;;;;;;;5133774;28;20486;-63
2024/03/17 02:56:57;;;;;;;9.03;2.47;;;;;;;;;;5133753;28;20527;-63
2024/03/17 02:59:24;;;;;;;6.93;1.97;;;;;;;;;;5133813;28;20448;-63
2024/03/17 03:01:51;;;;;;;15.23;2.93;;;;;;;;;;5133814;28;20881;-64
2024/03/17 03:04:18;;;;;;;7.33;2.13;;;;;;;;;;5133611;28;20440;-63
2024/03/17 03:06:45;;;;;;;6.90;1.53;;;;;;;;;;5133520;28;20791;-64
2024/03/17 03:09:14;;;;;;;11.27;1.93;;;;;;;;;;5133721;28;20524;-63
2024/03/17 03:11:41;;;;;;;7.32;1.65;;;;;;;;;;5133428;28;20951;-63
2024/03/17 03:14:09;;;;;;;12.53;2.10;;;;;;;;;;5133495;28;20303;-64
2024/03/17 03:16:36;;;;;;;8.93;2.30;;;;;;;;;;5133508;28;21003;-63
2024/03/17 03:19:03;;;;;;;5.60;1.60;;;;;;;;;;5133504;28;20440;-64
2024/03/17 03:21:30;;;;;;;14.70;2.57;;;;;;;;;;5133254;28;20904;-63
2024/03/17 03:23:57;;;;;;;12.83;2.50;;;;;;;;;;5133588;28;20867;-64
2024/03/17 03:26:24;;;;;;;9.53;1.97;;;;;;;;;;5133526;28;20443;-63
2024/03/17 03:28:54;;;;;;;6.70;2.30;;;;;;;;;;5133450;28;20441;-64
2024/03/17 03:31:22;;;;;;;6.17;2.03;;;;;;;;;;5133317;28;20805;-63
2024/03/17 03:33:49;;;;;;;7.10;2.17;;;;;;;;;;5133252;28;20928;-63
2024/03/17 03:36:17;;;;;;;10.03;2.17;;;;;;;;;;5135737;27;20478;-63
2024/03/17 03:38:44;;;;;;;6.57;2.17;;;;;;;;;;5137076;27;20450;-64
2024/03/17 03:41:11;;;;;;;5.80;1.73;;;;;;;;;;5137051;27;20536;-63
2024/03/17 03:43:39;;;;;;;7.43;2.40;;;;;;;;;;5136929;27;20505;-63
2024/03/17 03:46:06;;;;;;;10.05;2.38;;;;;;;;;;5136797;27;20541;-63
2024/03/17 03:48:35;;;;;;;7.80;2.90;;;;;;;;;;5136747;27;20187;-63
2024/03/17 03:51:05;;;;;;;4.47;2.63;;;;;;;;;;5136934;27;20426;-64
2024/03/17 03:53:32;;;;;;;6.97;2.17;;;;;;;;;;5136646;27;20437;-64
2024/03/17 03:55:59;;;;;;;7.37;1.70;;;;;;;;;;5136657;27;20476;-63
2024/03/17 03:58:26;;;;;;;13.60;2.33;;;;;;;;;;5136649;27;20447;-64
2024/03/17 04:00:53;;;;;;;9.80;2.27;;;;;;;;;;5136406;27;20527;-63
2024/03/17 04:03:20;;;;;;;6.40;2.00;;;;;;;;;;5136382;27;20974;-63
2024/03/17 04:05:48;;;;;;;14.18;1.95;;;;;;;;;;5136645;27;20198;-63
2024/03/17 04:08:15;;;;;;;7.60;2.83;;;;;;;;;;5136549;27;20282;-63
2024/03/17 04:10:42;;;;;;;7.97;1.97;;;;;;;;;;5136398;27;20873;-63
2024/03/17 04:13:09;;;;;;;8.45;2.60;;;;;;;;;;5136371;27;20441;-64
2024/03/17 04:15:36;;;;;;;6.17;2.37;;;;;;;;;;5136212;27;20211;-63
2024/03/17 04:18:03;;;;;;;11.90;2.08;;;;;;;;;;5136431;27;20532;-63
2024/03/17 04:20:30;;;;;;;8.80;2.30;;;;;;;;;;5136323;27;20219;-64
2024/03/17 04:22:59;;;;;;;6.20;2.13;;;;;;;;;;5136262;27;20191;-63
2024/03/17 04:25:26;;;;;;;9.45;2.28;;;;;;;;;;5136162;27;20608;-63
2024/03/17 04:27:53;;;;;;;6.20;1.90;;;;;;;;;;5136037;27;20215;-63
2024/03/17 04:30:21;;;;;;;13.23;2.75;;;;;;;;;;5135847;27;20191;-64
2024/03/17 04:32:47;;;;;;;11.45;2.70;;;;;;;;;;5136095;27;20192;-64
2024/03/17 04:35:14;;;;;;;6.03;1.70;;;;;;;;;;5135954;27;20214;-64
2024/03/17 04:37:41;;;;;;;11.48;2.03;;;;;;;;;;5135947;27;20483;-63
2024/03/17 04:40:11;;;;;;;6.20;1.85;;;;;;;;;;5135814;27;20277;-64
2024/03/17 04:42:39;;;;;;;12.70;2.35;;;;;;;;;;5135849;27;20571;-64
2024/03/17 04:45:07;;;;;;;6.95;2.15;;;;;;;;;;5135711;27;20188;-63
2024/03/17 04:47:36;;;;;;;11.15;2.47;;;;;;;;;;5134980;27;20228;-63
2024/03/17 04:50:04;;;;;;;7.47;2.45;;;;;;;;;;5135766;27;20278;-63
2024/03/17 04:52:31;;;;;;;10.93;2.83;;;;;;;;;;5135488;27;20191;-64
2024/03/17 04:54:58;;;;;;;7.63;1.80;;;;;;;;;;5135392;27;20556;-64
2024/03/17 04:57:26;;;;;;;5.47;2.70;;;;;;;;;;5135397;27;20197;-63
2024/03/17 04:59:53;;;;;;;4.97;3.13;;;;;;;;;;5135533;27;20532;-63
2024/03/17 05:02:20;;;;;;;11.27;2.40;;;;;;;;;;5135364;27;20451;-63
2024/03/17 05:04:47;;;;;;;9.77;2.60;;;;;;;;;;5135330;27;20226;-63
2024/03/17 05:07:14;;;;;;;11.10;1.63;;;;;;;;;;5135316;27;20187;-63
2024/03/17 05:09:43;;;;;;;6.82;2.70;;;;;;;;;;5135169;27;20187;-63
2024/03/17 05:12:10;;;;;;;8.90;2.40;;;;;;;;;;5135340;27;20192;-63
2024/03/17 05:14:39;;;;;;;11.65;3.75;;;;;;;;;;5135139;27;20447;-64
2024/03/17 05:17:05;;;;;;;12.23;2.78;;;;;;;;;;5135196;27;20639;-64
2024/03/17 05:19:32;;;;;;;12.07;3.03;;;;;;;;;;5135065;27;20300;-63
2024/03/17 05:22:00;;;;;;;4.05;1.55;;;;;;;;;;5134924;27;20230;-63
2024/03/17 05:24:27;;;;;;;6.78;3.03;;;;;;;;;;5134929;27;20198;-63
2024/03/17 05:26:54;;;;;;;9.88;2.90;;;;;;;;;;5135003;27;20187;-63
2024/03/17 05:29:22;;;;;;;11.73;2.63;;;;;;;;;;5134988;27;20549;-63
2024/03/17 05:31:51;;;;;;;6.93;1.90;;;;;;;;;;5134706;27;20641;-63
2024/03/17 05:34:18;;;;;;;7.07;2.78;;;;;;;;;;5134742;27;20274;-63
2024/03/17 05:36:46;;;;;;;4.77;1.60;;;;;;;;;;5134505;27;20215;-64
2024/03/17 05:39:13;;;;;;;8.27;2.10;;;;;;;;;;5134811;27;20456;-64
2024/03/17 05:41:41;;;;;;;8.50;2.37;;;;;;;;;;5134689;27;20453;-64
2024/03/17 05:44:08;;;;;;;8.30;1.80;;;;;;;;;;5134617;27;20452;-63
2024/03/17 05:46:35;;;;;;;7.97;2.00;;;;;;;;;;5134392;27;20512;-64
2024/03/17 05:49:04;;;;;;;5.37;2.50;;;;;;;;;;5134510;27;20441;-64
2024/03/17 05:51:31;;;;;;;7.10;2.80;;;;;;;;;;5134633;27;20475;-63
2024/03/17 05:53:59;;;;;;;7.30;1.80;;;;;;;;;;5134577;27;20440;-63
2024/03/17 05:56:26;;;;;;;7.53;2.53;;;;;;;;;;5134406;27;20870;-64
2024/03/17 05:58:53;;;;;;;9.30;2.37;;;;;;;;;;5134295;27;20849;-64
2024/03/17 06:01:21;;;;;;;6.57;2.33;;;;;;;;;;5134263;27;20448;-63
2024/03/17 06:03:48;;;;;;;8.27;2.57;;;;;;;;;;5134169;27;20493;-64
2024/03/17 06:06:16;;;;;;;7.40;2.83;;;;;;;;;;5134402;27;20540;-63
2024/03/17 06:08:43;;;;;;;8.07;2.23;;;;;;;;;;5134095;27;21004;-63
2024/03/17 06:11:10;;;;;;;5.80;2.30;;;;;;;;;;5134493;27;20449;-64
2024/03/17 06:13:37;;;;;;;6.43;3.10;;;;;;;;;;5134164;27;20441;-64
2024/03/17 06:16:05;;;;;;;9.10;2.40;;;;;;;;;;5133996;27;20559;-63
2024/03/17 06:18:32;;;;;;;9.90;2.80;;;;;;;;;;5133950;27;20445;-64
2024/03/17 06:20:59;;;;;;;6.50;2.23;;;;;;;;;;5133978;27;20527;-64
2024/03/17 06:23:28;;;;;;;12.40;2.23;;;;;;;;;;5134211;27;20483;-64
2024/03/17 06:25:56;;;;;;;6.47;2.57;;;;;;;;;;5134146;27;20447;-64
2024/03/17 06:28:23;;;;;;;7.27;2.80;;;;;;;;;;5133947;27;20449;-64
2024/03/17 06:30:56;;;;;;;9.57;3.20;;;;;;;;;;5133864;28;20447;-64
2024/03/17 06:33:23;;;;;;;9.17;3.50;;;;;;;;;;5134107;28;20795;-64
2024/03/17 06:35:50;;;;;;;9.20;2.57;;;;;;;;;;5133789;27;21019;-64
2024/03/17 06:38:17;;;;;;;12.47;3.20;;;;;;;;;;5133854;28;20965;-64
2024/03/17 06:40:50;;;;;;;6.77;2.27;;;;;;;;;;5133945;28;20436;-64
2024/03/17 06:43:17;;;;;;;8.97;2.43;;;;;;;;;;5133803;28;20455;-64
2024/03/17 06:45:44;;;;;;;6.90;2.50;;;;;;;;;;5133756;28;20501;-64
2024/03/17 06:48:11;;;;;;;15.13;3.07;;;;;;;;;;5133949;28;20444;-64
2024/03/17 06:50:41;;;;;;;6.67;2.03;;;;;;;;;;5133891;27;20884;-63
2024/03/17 06:53:08;;;;;;;8.13;2.73;;;;;;;;;;5133765;28;20796;-64
2024/03/17 06:55:35;;;;;;;5.33;2.40;;;;;;;;;;5133601;28;20521;-64
2024/03/17 06:58:04;;;;;;;10.30;2.80;;;;;;;;;;5133633;28;20447;-63
2024/03/17 07:00:31;;;;;;;9.00;2.57;;;;;;;;;;5133801;28;20457;-64
2024/03/17 07:02:57;;;;;;;13.43;2.40;;;;;;;;;;5133588;28;20943;-63
2024/03/17 07:05:24;;;;;;;9.43;1.97;;;;;;;;;;5133693;28;20456;-63
2024/03/17 07:07:52;;;;;;;7.63;2.27;;;;;;;;;;5133600;28;20447;-64
2024/03/17 07:10:19;;;;;;;9.03;2.50;;;;;;;;;;5134499;27;20936;-63
2024/03/17 07:12:46;;;;;;;10.10;2.80;;;;;;;;;;5137455;27;20440;-63
2024/03/17 07:15:14;;;;;;;13.00;3.20;;;;;;;;;;5137498;27;20440;-63
2024/03/17 07:17:41;;;;;;;7.10;2.40;;;;;;;;;;5137369;27;20951;-64
2024/03/17 07:20:12;;;;;;;12.57;2.37;;;;;;;;;;5137410;27;20476;-63
2024/03/17 07:22:39;;;;;;;7.80;2.20;;;;;;;;;;5137341;27;21037;-63
2024/03/17 07:25:06;;;;;;;6.60;1.93;;;;;;;;;;5137280;27;20451;-63
2024/03/17 07:27:33;;;;;;;8.27;2.00;;;;;;;;;;5137494;27;20443;-63
2024/03/17 07:30:00;;;;;;;8.60;3.07;;;;;;;;;;5137250;27;20441;-64
2024/03/17 07:32:29;;;;;;;2.93;1.40;;;;;;;;;;5137254;27;20486;-64
2024/03/17 07:34:56;;;;;;;7.40;2.13;;;;;;;;;;5137082;27;20480;-64
2024/03/17 07:37:22;;;;;;;9.00;2.27;;;;;;;;;;5137014;27;20480;-63
2024/03/17 07:39:50;;;;;;;7.57;1.70;;;;;;;;;;5136943;27;20445;-64
2024/03/17 07:42:17;;;;;;;7.37;2.30;;;;;;;;;;5137116;27;20445;-63
2024/03/17 07:44:45;;;;;;;11.73;2.40;;;;;;;;;;5137018;27;21106;-64
2024/03/17 07:47:12;;;;;;;6.57;1.70;;;;;;;;;;5136685;27;20551;-63
2024/03/17 07:49:40;;;;;;;8.70;2.67;;;;;;;;;;5136770;27;20475;-63
2024/03/17 07:52:07;;;;;;;8.40;1.93;;;;;;;;;;5136661;27;20441;-63
2024/03/17 07:54:35;;;;;;;8.00;2.30;;;;;;;;;;5136627;27;20523;-63
2024/03/17 07:57:02;;;;;;;4.50;1.90;;;;;;;;;;5136715;27;20487;-63
2024/03/17 07:59:29;;;;;;;11.33;2.33;;;;;;;;;;5136706;27;20451;-63
2024/03/17 08:01:57;;;;;;;8.50;2.17;;;;;;;;;;5136657;27;20488;-63
2024/03/17 08:04:24;;;;;;;6.50;2.07;;;;;;;;;;5136452;27;20489;-64
2024/03/17 08:06:52;;;;;;;6.50;1.87;;;;;;;;;;5136297;27;20520;-63
2024/03/17 08:09:19;;;;;;;10.83;2.50;;;;;;;;;;5136317;27;20984;-64
2024/03/17 08:11:47;;;;;;;6.70;2.00;;;;;;;;;;5136555;27;20537;-63
2024/03/17 08:14:14;;;;;;;5.30;1.93;;;;;;;;;;5136394;27;20796;-64
2024/03/17 08:16:41;;;;;;;8.00;2.50;;;;;;;;;;5136233;27;20481;-64
2024/03/17 08:19:08;;;;;;;7.17;2.00;;;;;;;;;;5136246;27;20487;-63
2024/03/17 08:21:35;;;;;;;8.17;2.10;;;;;;;;;;5135145;27;20453;-64
2024/03/17 08:24:04;;;;;;;12.20;1.73;;;;;;;;;;5136126;27;20468;-64
2024/03/17 08:26:30;;;;;;;3.60;1.50;;;;;;;;;;5136054;27;21010;-64
2024/03/17 08:28:58;;;;;;;6.97;1.73;;;;;;;;;;5136132;27;20475;-63
2024/03/17 08:31:25;;;;;;;4.40;1.73;;;;;;;;;;5135977;27;20452;-63
2024/03/17 08:33:52;;;;;;;10.93;2.10;;;;;;;;;;5135771;27;20527;-63
2024/03/17 08:36:21;;;;;;;5.07;2.30;;;;;;;;;;5135928;27;20490;-63
2024/03/17 08:38:48;;;;;;;6.67;1.83;;;;;;;;;;5135970;27;20448;-63
2024/03/17 08:41:17;;;;;;;5.13;1.20;;;;;;;;;;5135879;27;20467;-63
2024/03/17 08:43:43;;;;;;;5.90;1.43;;;;;;;;;;5135727;27;21012;-63
2024/03/17 08:46:13;;;;;;;6.90;1.90;;;;;;;;;;5135395;27;20517;-63
2024/03/17 08:48:41;;;;;;;10.53;2.47;;;;;;;;;;5135572;27;20412;-63
2024/03/17 08:51:08;;;;;;;6.47;1.53;;;;;;;;;;5135683;27;20440;-64
2024/03/17 08:53:37;;;;;;;2.33;1.63;;;;;;;;;;5135683;27;20535;-64
2024/03/17 08:56:06;;;;;;;6.93;2.43;;;;;;;;;;5135478;27;20496;-64
2024/03/17 08:58:34;;;;;;;3.77;1.60;;;;;;;;;;5135452;27;20804;-64
2024/03/17 09:01:04;;;;;;;7.43;1.90;;;;;;;;;;5135326;27;20477;-64
2024/03/17 09:03:31;;;;;;;5.03;1.80;;;;;;;;;;5135517;27;20456;-64
2024/03/17 09:05:58;;;;;;;5.33;2.13;;;;;;;;;;5135258;27;20448;-63
2024/03/17 09:08:26;;;;;;;6.43;1.83;;;;;;;;;;5135288;27;20528;-63
2024/03/17 09:10:54;;;;;;;5.43;1.80;;;;;;;;;;5135046;27;20939;-63
2024/03/17 09:13:23;;;;;;;5.57;2.80;;;;;;;;;;5135046;27;20437;-63
2024/03/17 09:15:56;;;;;;;6.50;1.90;;;;;;;;;;5135196;27;20441;-63
2024/03/17 09:18:23;;;;;;;6.93;2.50;;;;;;;;;;5135099;27;20497;-63
2024/03/17 09:20:57;;;;;;;4.97;1.80;;;;;;;;;;5135114;27;20781;-63
2024/03/17 09:23:26;;;;;;;4.57;1.60;;;;;;;;;;5134922;27;20445;-63
2024/03/17 09:25:59;;;;;;;3.27;1.50;;;;;;;;;;5134702;27;20480;-63
2024/03/17 09:28:26;;;;;;;6.60;1.53;;;;;;;;;;5135042;27;20445;-63
2024/03/17 09:30:53;;;;;;;6.00;1.90;;;;;;;;;;5134860;27;20637;-63
2024/03/17 09:33:22;;;;;;;8.57;2.47;;;;;;;;;;5134606;27;20539;-63
2024/03/17 09:35:56;;;;;;;4.40;1.40;;;;;;;;;;5134609;27;20444;-64
2024/03/17 09:38:23;;;;;;;8.67;1.70;;;;;;;;;;5134563;27;20495;-64
2024/03/17 09:40:52;;;;;;;6.00;1.93;;;;;;;;;;5134911;27;20853;-64
2024/03/17 09:43:19;;;;;;;14.73;1.83;;;;;;;;;;5134543;27;20532;-65
2024/03/17 09:45:46;;;;;;;5.00;1.83;;;;;;;;;;5134458;27;20793;-64
2024/03/17 09:48:15;;;;;;;4.47;1.23;;;;;;;;;;5134493;27;20440;-64
2024/03/17 09:50:44;;;;;;;4.27;1.60;;;;;;;;;;5134448;27;20441;-64
2024/03/17 09:53:16;;;;;;;1.70;1.20;;;;;;;;;;5134314;27;20441;-64
2024/03/17 09:55:43;;;;;;;7.93;1.80;;;;;;;;;;5134568;27;20924;-64
2024/03/17 09:58:16;;;;;;;6.80;2.00;;;;;;;;;;5134414;27;20879;-64
2024/03/17 10:00:43;;;;;;;3.97;2.13;;;;;;;;;;5134463;27;20472;-64
2024/03/17 10:03:10;;;;;;;3.17;1.30;;;;;;;;;;5134189;27;20437;-64
2024/03/17 10:05:37;;;;;;;5.20;1.77;;;;;;;;;;5134117;27;20468;-64
2024/03/17 10:08:06;;;;;;;4.60;1.70;;;;;;;;;;5134018;27;20484;-64
2024/03/17 10:10:33;;;;;;;7.60;1.87;;;;;;;;;;5134211;27;20516;-64
2024/03/17 10:13:01;;;;;;;9.23;2.03;;;;;;;;;;5134181;27;20531;-64
2024/03/17 10:15:27;;;;;;;5.10;1.60;;;;;;;;;;5134112;27;20524;-64
2024/03/17 10:17:54;;;;;;;4.17;1.30;;;;;;;;;;5133907;27;20468;-64
2024/03/17 10:20:23;;;;;;;5.07;2.10;;;;;;;;;;5134123;27;20447;-64
2024/03/17 10:23:00;;;;;;;1.73;1.10;;;;;;;;;;5134110;27;20527;-64
2024/03/17 10:25:28;;;;;;;9.10;1.87;;;;;;;;;;5133712;27;20444;-64
2024/03/17 10:27:56;;;;;;;4.63;2.07;;;;;;;;;;5133946;27;20451;-64
2024/03/17 10:30:25;;;;;;;15.47;10.97;;;;;;;;;;5133817;28;20441;-64
2024/03/17 10:32:55;;;;;;;3.43;1.30;;;;;;;;;;5133824;28;20936;-64
2024/03/17 10:35:32;;;;;;;4.40;1.30;;;;;;;;;;5133979;28;20480;-64
2024/03/17 10:38:00;;;;;;;7.20;3.13;;;;;;;;;;5133805;28;20476;-64
2024/03/17 10:40:29;;;;;;;2.40;1.20;;;;;;;;;;5133859;28;20447;-64
2024/03/17 10:42:56;;;;;;;5.43;1.37;;;;;;;;;;5133566;28;20444;-63
2024/03/17 10:45:24;;;;;;;7.43;1.60;;;;;;;;;;5135024;27;20556;-63
2024/03/17 10:47:52;;;;;;;8.40;1.73;;;;;;;;;;5138140;27;20920;-63
2024/03/17 10:50:19;;;;;;;3.73;1.67;;;;;;;;;;5138015;27;20535;-63
2024/03/17 10:52:49;;;;;;;2.37;1.20;;;;;;;;;;5137987;27;20501;-63
2024/03/17 10:55:22;;;;;;;2.93;1.57;;;;;;;;;;5137782;27;20444;-63
2024/03/17 10:57:51;;;;;;;5.63;1.23;;;;;;;;;;5138004;27;21040;-63
2024/03/17 11:00:19;;;;;;;5.93;1.30;;;;;;;;;;5137891;27;20452;-63
2024/03/17 11:02:46;;;;;;;3.77;2.17;;;;;;;;;;5137857;27;20444;-63
2024/03/17 11:05:16;;;;;;;7.90;2.00;;;;;;;;;;5137598;27;20445;-63
2024/03/17 11:07:45;;;;;;;5.43;1.90;;;;;;;;;;5137603;27;21010;-63
2024/03/17 11:10:16;;;;;;;8.00;1.63;;;;;;;;;;5137420;27;20440;-63
2024/03/17 11:12:44;;;;;;;4.47;1.30;;;;;;;;;;5137655;27;20440;-63
2024/03/17 11:15:33;;;;;;;4.43;1.00;;;;;;;;;;5137607;27;20520;-64
2024/03/17 11:18:24;;;;;;;3.93;1.23;;;;;;;;;;5137470;27;20878;-64
2024/03/17 11:20:56;;;;;;;3.23;1.47;;;;;;;;;;5137296;27;20874;-63
2024/03/17 11:23:28;;;;;;;3.17;1.67;;;;;;;;;;5137479;27;20448;-64
2024/03/17 11:25:55;;;;;;;3.80;1.30;;;;;;;;;;5137405;27;20440;-63
2024/03/17 11:28:37;;;;;;;3.70;1.87;;;;;;;;;;5137250;27;20526;-63
2024/03/17 11:31:08;;;;;;;6.40;1.63;;;;;;;;;;5136876;27;20843;-64
2024/03/17 11:33:50;;;;;;;4.97;1.33;;;;;;;;;;5137231;27;20449;-63
2024/03/17 11:36:36;;;;;;;3.57;1.20;;;;;;;;;;5137245;27;20437;-63
2024/03/17 11:39:03;;;;;;;5.73;1.40;;;;;;;;;;5137036;27;20450;-63
2024/03/17 11:41:38;;;;;;;4.43;1.30;;;;;;;;;;5136923;27;20497;-63
2024/03/17 11:44:14;;;;;;;3.40;1.20;;;;;;;;;;5137134;27;20444;-63
2024/03/17 11:46:42;;;;;;;3.53;1.33;;;;;;;;;;5136702;27;20483;-64
2024/03/17 11:49:17;;;;;;;2.77;1.40;;;;;;;;;;5136898;27;20883;-63
2024/03/17 11:51:44;;;;;;;2.30;1.17;;;;;;;;;;5136796;27;20452;-64
2024/03/17 11:54:13;;;;;;;2.00;1.10;;;;;;;;;;5136812;27;20475;-64
2024/03/17 11:56:40;;;;;;;2.27;1.20;;;;;;;;;;5136519;27;20440;-63
2024/03/17 11:59:09;;;;;;;3.13;1.53;;;;;;;;;;5136719;27;20621;-64
2024/03/17 12:01:36;;;;;;;3.77;1.20;;;;;;;;;;5136555;27;20539;-63
2024/03/17 12:04:05;;;;;;;2.33;1.13;;;;;;;;;;5136585;27;20477;-63
2024/03/17 12:06:33;;;;;;;5.90;1.80;;;;;;;;;;5136362;27;20573;-63
2024/03/17 12:09:09;;;;;;;3.40;2.20;;;;;;;;;;5136553;27;20444;-63
2024/03/17 12:11:37;;;;;;;1.90;1.40;;;;;;;;;;5136437;27;20507;-63
2024/03/17 12:14:14;;;;;;;2.40;1.40;;;;;;;;;;5136215;27;20455;-63
2024/03/17 12:16:48;;;;;;;6.23;1.60;;;;;;;;;;5136212;27;20451;-64
2024/03/17 12:19:16;;;;;;;2.60;0.97;;;;;;;;;;5136413;27;20456;-63
2024/03/17 12:21:44;;;;;;;3.13;1.40;;;;;;;;;;5136234;27;20449;-63
2024/03/17 12:24:13;;;;;;;4.10;1.20;;;;;;;;;;5136275;27;20537;-64
2024/03/17 12:26:40;;;;;;;3.83;1.10;;;;;;;;;;5135991;27;20488;-64
2024/03/17 12:29:21;;;;;;;1.50;1.00;;;;;;;;;;5135890;27;20447;-63
2024/03/17 12:31:48;;;;;;;2.03;1.30;;;;;;;;;;5136014;27;20464;-64
2024/03/17 12:34:14;;;;;;;1.73;0.83;;;;;;;;;;5136131;27;20531;-63
2024/03/17 12:36:41;;;;;;;2.57;1.10;;;;;;;;;;5135863;27;20463;-63
2024/03/17 12:39:12;;;;;;;4.60;1.70;;;;;;;;;;5135872;27;20441;-64
2024/03/17 12:41:39;;;;;;;3.10;1.30;;;;;;;;;;5135720;27;20460;-63
2024/03/17 12:44:05;;;;;;;3.40;1.50;;;;;;;;;;5135604;27;20440;-63
2024/03/17 12:46:32;;;;;;;5.20;1.40;;;;;;;;;;5135534;27;20526;-64
2024/03/17 12:48:59;;;;;;;3.70;1.27;;;;;;;;;;5135680;27;20440;-63
2024/03/17 12:51:26;;;;;;;3.60;1.47;;;;;;;;;;5135546;27;20453;-63
2024/03/17 12:54:07;;;;;;;3.63;1.07;;;;;;;;;;5135515;27;20551;-63
2024/03/17 13:02:10;;;;;;;4.07;1.07;;;;;;;;;;5135424;27;20596;-63
2024/03/17 13:04:37;;;;;;;1.80;1.10;;;;;;;;;;5135329;27;20870;-63
2024/03/17 13:07:10;;;;;;;2.23;1.40;;;;;;;;;;5135424;27;20478;-64
2024/03/17 13:09:37;;;;;;;6.40;1.57;;;;;;;;;;5134746;27;20578;-63
2024/03/17 13:12:12;;;;;;;2.00;1.20;;;;;;;;;;5135301;27;20528;-63
2024/03/17 13:14:39;;;;;;;5.00;1.57;;;;;;;;;;5135163;27;20523;-63
2024/03/17 13:17:08;;;;;;;1.73;1.07;;;;;;;;;;5134950;27;20475;-63
2024/03/17 13:19:37;;;;;;;4.73;1.10;;;;;;;;;;5135247;27;20536;-64
2024/03/17 13:22:04;;;;;;;1.50;1.10;;;;;;;;;;5135173;27;20800;-64
2024/03/17 13:24:31;;;;;;;14.43;1.93;;;;;;;;;;5135041;27;20532;-64
2024/03/17 13:27:03;;;;;;;5.80;1.23;;;;;;;;;;5134999;27;20441;-63
2024/03/17 13:29:32;;;;;;;1.53;1.10;;;;;;;;;;5134829;27;20441;-64
2024/03/17 13:31:59;;;;;;;1.97;1.20;;;;;;;;;;5134659;27;20481;-64
2024/03/17 13:34:26;;;;;;;2.57;1.30;;;;;;;;;;5134917;27;20471;-64
2024/03/17 13:36:54;;;;;;;3.53;1.67;;;;;;;;;;5134669;27;20447;-64
2024/03/17 13:39:21;;;;;;;2.70;1.10;;;;;;;;;;5134675;27;20448;-64
2024/03/17 13:41:49;;;;;;;3.67;1.47;;;;;;;;;;5134540;27;20448;-64
2024/03/17 13:44:16;;;;;;;4.50;2.00;;;;;;;;;;5134436;27;20475;-64
2024/03/17 13:46:44;;;;;;;2.60;1.20;;;;;;;;;;5134342;27;20551;-64
2024/03/17 13:49:11;;;;;;;2.40;1.03;;;;;;;;;;5134625;27;20436;-64
2024/03/17 13:51:38;;;;;;;4.23;1.27;;;;;;;;;;5134628;27;20479;-64
2024/03/17 13:54:05;;;;;;;1.50;1.30;;;;;;;;;;5134257;27;20494;-64
2024/03/17 13:56:33;;;;;;;2.20;0.97;;;;;;;;;;5134400;27;20484;-64
2024/03/17 13:59:00;;;;;;;1.70;1.20;;;;;;;;;;5134151;27;20487;-63
2024/03/17 14:01:27;;;;;;;4.23;1.90;;;;;;;;;;5134329;27;20448;-64
2024/03/17 14:03:55;;;;;;;4.23;1.40;;;;;;;;;;5134375;27;20447;-63
2024/03/17 14:06:22;;;;;;;2.10;1.07;;;;;;;;;;5134092;27;20464;-63
2024/03/17 14:08:49;;;;;;;3.07;1.07;;;;;;;;;;5133979;27;20531;-64
2024/03/17 14:11:16;;;;;;;4.53;1.40;;;;;;;;;;5134001;27;20443;-63
2024/03/17 14:13:43;;;;;;;2.50;1.20;;;;;;;;;;5134249;27;20437;-63
2024/03/17 14:16:10;;;;;;;2.70;1.10;;;;;;;;;;5134336;27;20475;-63
2024/03/17 14:18:37;;;;;;;2.80;1.00;;;;;;;;;;5134189;27;20480;-64
2024/03/17 14:21:06;;;;;;;2.20;1.10;;;;;;;;;;5133066;27;20867;-64
2024/03/17 14:23:33;;;;;;;1.57;1.00;;;;;;;;;;5133926;27;20451;-63
2024/03/17 14:26:00;;;;;;;3.23;1.27;;;;;;;;;;5133842;27;20470;-64
2024/03/17 14:28:27;;;;;;;3.83;1.53;;;;;;;;;;5133919;27;20882;-64
2024/03/17 14:30:54;;;;;;;4.87;1.20;;;;;;;;;;5134033;27;20445;-63
2024/03/17 14:33:21;;;;;;;1.90;1.07;;;;;;;;;;5133925;28;20527;-64
2024/03/17 14:35:48;;;;;;;3.33;1.30;;;;;;;;;;5133811;28;20476;-64
2024/03/17 14:38:16;;;;;;;4.00;1.67;;;;;;;;;;5133784;28;20483;-64
2024/03/17 14:40:43;;;;;;;1.10;1.00;;;;;;;;;;5133749;28;21002;-63
2024/03/17 14:43:10;;;;;;;4.40;1.17;;;;;;;;;;5133949;28;20535;-64
2024/03/17 14:45:38;;;;;;;1.67;1.43;;;;;;;;;;5133522;28;20512;-64
2024/03/17 14:48:05;;;;;;;3.20;1.43;;;;;;;;;;5133756;28;20448;-64
2024/03/17 14:50:32;;;;;;;3.03;1.00;;;;;;;;;;5133749;28;20822;-64